createdAt,value
2018-12-16T00:01:34.131Z,22.80
2018-12-16T00:04:03.180Z,22.80
2018-12-16T00:06:32.106Z,22.80
2018-12-16T00:09:00.992Z,22.70
2018-12-16T00:11:29.984Z,22.80
2018-12-16T00:13:59.115Z,22.80
2018-12-16T00:16:28.219Z,22.70
2018-12-16T00:18:57.233Z,22.80
2018-12-16T00:21:26.829Z,22.80
2018-12-16T00:23:55.789Z,22.70
2018-12-16T00:26:29.283Z,22.70
2018-12-16T00:28:58.280Z,22.80
2018-12-16T00:31:27.300Z,22.70
2018-12-16T00:33:56.309Z,22.80
2018-12-16T00:36:25.441Z,22.70
2018-12-16T00:38:54.416Z,22.80
2018-12-16T00:41:23.344Z,22.80
2018-12-16T00:43:52.351Z,22.80
2018-12-16T00:46:21.363Z,22.80
2018-12-16T00:48:51.514Z,22.80
2018-12-16T00:51:20.484Z,22.80
2018-12-16T00:53:49.421Z,22.80
2018-12-16T00:56:19.082Z,22.80
2018-12-16T00:58:48.058Z,22.80
2018-12-16T01:01:17.161Z,22.80
2018-12-16T01:03:46.072Z,22.80
2018-12-16T01:06:15.105Z,22.70
2018-12-16T01:08:44.517Z,22.70
2018-12-16T01:11:13.510Z,22.80
2018-12-16T01:13:42.627Z,22.70
2018-12-16T01:16:12.392Z,22.80
2018-12-16T01:18:41.478Z,22.80
2018-12-16T01:21:10.462Z,22.70
2018-12-16T01:23:39.988Z,22.70
2018-12-16T01:26:08.979Z,22.70
2018-12-16T01:28:38.216Z,22.70
2018-12-16T01:31:07.241Z,22.70
2018-12-16T01:33:36.884Z,22.70
2018-12-16T01:36:06.048Z,22.80
2018-12-16T01:38:34.986Z,22.70
2018-12-16T01:41:03.984Z,22.70
2018-12-16T01:43:33.006Z,22.70
2018-12-16T01:46:02.124Z,22.70
2018-12-16T01:48:31.233Z,22.70
2018-12-16T01:51:00.241Z,22.70
2018-12-16T01:53:29.046Z,22.70
2018-12-16T01:55:58.333Z,22.70
2018-12-16T01:58:27.255Z,22.80
2018-12-16T02:00:56.284Z,22.70
2018-12-16T02:03:25.293Z,22.70
2018-12-16T02:05:54.191Z,22.70
2018-12-16T02:08:23.240Z,22.70
2018-12-16T02:10:52.336Z,22.70
2018-12-16T02:13:21.368Z,22.70
2018-12-16T02:15:51.110Z,22.70
2018-12-16T02:18:19.979Z,22.70
2018-12-16T02:20:48.975Z,22.70
2018-12-16T02:23:17.886Z,22.70
2018-12-16T02:25:46.914Z,22.70
2018-12-16T02:28:16.209Z,22.70
2018-12-16T02:30:45.224Z,22.70
2018-12-16T02:33:14.249Z,22.70
2018-12-16T02:35:43.284Z,22.70
2018-12-16T02:38:12.248Z,22.70
2018-12-16T02:40:41.284Z,22.70
2018-12-16T02:43:10.147Z,22.70
2018-12-16T02:45:39.298Z,22.70
2018-12-16T02:48:08.408Z,22.70
2018-12-16T02:50:37.520Z,22.70
2018-12-16T02:53:06.564Z,22.70
2018-12-16T02:55:35.552Z,22.70
2018-12-16T02:58:04.663Z,22.70
2018-12-16T03:00:33.666Z,22.70
2018-12-16T03:03:02.670Z,22.70
2018-12-16T03:05:31.700Z,22.70
2018-12-16T03:08:00.650Z,22.70
2018-12-16T03:10:29.610Z,22.70
2018-12-16T03:12:58.719Z,22.70
2018-12-16T03:15:27.852Z,22.70
2018-12-16T03:17:56.835Z,22.70
2018-12-16T03:20:26.020Z,22.70
2018-12-16T03:22:55.080Z,22.70
2018-12-16T03:25:24.172Z,22.70
2018-12-16T03:27:53.303Z,22.70
2018-12-16T03:30:23.361Z,22.70
2018-12-16T03:32:52.563Z,22.70
2018-12-16T03:35:21.603Z,22.70
2018-12-16T03:37:51.153Z,22.70
2018-12-16T03:40:20.173Z,22.70
2018-12-16T03:42:49.200Z,22.70
2018-12-16T03:45:18.313Z,22.70
2018-12-16T03:47:47.221Z,22.70
2018-12-16T03:50:16.222Z,22.70
2018-12-16T03:52:45.244Z,22.70
2018-12-16T03:55:14.239Z,22.70
2018-12-16T03:57:43.127Z,22.70
2018-12-16T04:00:11.965Z,22.70
2018-12-16T04:02:41.067Z,22.70
2018-12-16T04:05:10.186Z,22.70
2018-12-16T04:07:39.304Z,22.70
2018-12-16T04:10:08.462Z,22.80
2018-12-16T04:12:38.210Z,22.80
2018-12-16T04:15:07.676Z,22.80
2018-12-16T04:17:36.787Z,22.80
2018-12-16T04:20:05.997Z,22.80
2018-12-16T04:22:35.007Z,22.80
2018-12-16T04:25:04.434Z,22.80
2018-12-16T04:27:33.549Z,22.80
2018-12-16T04:30:03.225Z,22.80
2018-12-16T04:32:32.192Z,22.90
2018-12-16T04:35:01.274Z,22.80
2018-12-16T04:37:30.446Z,22.80
2018-12-16T04:39:59.916Z,22.80
2018-12-16T04:42:29.031Z,22.90
2018-12-16T04:44:57.937Z,22.80
2018-12-16T04:47:26.950Z,22.80
2018-12-16T04:49:55.926Z,22.80
2018-12-16T04:52:24.885Z,22.90
2018-12-16T04:54:53.922Z,22.90
2018-12-16T04:57:22.885Z,22.90
2018-12-16T04:59:51.896Z,22.90
2018-12-16T05:02:20.916Z,22.90
2018-12-16T05:04:49.959Z,22.90
2018-12-16T05:07:18.933Z,22.90
2018-12-16T05:09:47.869Z,22.90
2018-12-16T05:12:16.680Z,22.90
2018-12-16T05:14:45.753Z,22.90
2018-12-16T05:17:14.877Z,22.90
2018-12-16T05:19:43.876Z,22.90
2018-12-16T05:22:13.580Z,22.90
2018-12-16T05:24:42.556Z,22.90
2018-12-16T05:27:12.230Z,22.90
2018-12-16T05:29:41.252Z,22.90
2018-12-16T05:32:10.372Z,22.90
2018-12-16T05:34:39.286Z,22.90
2018-12-16T05:37:08.195Z,22.90
2018-12-16T05:39:37.198Z,22.90
2018-12-16T05:42:06.191Z,22.90
2018-12-16T05:44:35.113Z,22.90
2018-12-16T05:47:04.255Z,22.90
2018-12-16T05:49:33.337Z,22.90
2018-12-16T05:52:02.447Z,22.90
2018-12-16T05:54:31.472Z,22.90
2018-12-16T05:57:00.591Z,22.90
2018-12-16T05:59:29.703Z,22.90
2018-12-16T06:01:58.596Z,22.90
2018-12-16T06:04:27.636Z,22.90
2018-12-16T06:06:56.603Z,22.90
2018-12-16T06:09:26.448Z,22.90
2018-12-16T06:11:55.460Z,22.90
2018-12-16T06:14:24.454Z,22.90
2018-12-16T06:16:53.480Z,22.90
2018-12-16T06:19:22.487Z,22.90
2018-12-16T06:21:51.806Z,22.90
2018-12-16T06:24:21.574Z,22.90
2018-12-16T06:26:50.595Z,22.90
2018-12-16T06:29:19.557Z,22.90
2018-12-16T06:31:48.573Z,22.90
2018-12-16T06:34:17.580Z,22.90
2018-12-16T06:36:46.698Z,22.90
2018-12-16T06:39:15.824Z,22.90
2018-12-16T06:41:45.628Z,22.90
2018-12-16T06:44:14.641Z,22.90
2018-12-16T06:46:43.649Z,22.80
2018-12-16T06:49:12.611Z,22.80
2018-12-16T06:51:41.566Z,22.80
2018-12-16T06:54:10.580Z,22.80
2018-12-16T06:56:39.710Z,22.80
2018-12-16T06:59:08.802Z,22.80
2018-12-16T07:01:37.837Z,22.80
2018-12-16T07:04:06.937Z,22.80
2018-12-16T07:06:36.071Z,22.80
2018-12-16T07:09:06.744Z,22.70
2018-12-16T07:11:35.701Z,22.80
2018-12-16T07:14:05.314Z,22.80
2018-12-16T07:16:34.535Z,22.70
2018-12-16T07:19:03.669Z,22.80
2018-12-16T07:21:32.794Z,22.80
2018-12-16T07:24:01.894Z,22.70
2018-12-16T07:26:30.928Z,22.70
2018-12-16T07:28:59.922Z,22.70
2018-12-16T07:31:29.039Z,22.70
2018-12-16T07:33:58.249Z,22.80
2018-12-16T07:36:27.351Z,22.70
2018-12-16T07:38:56.151Z,22.70
2018-12-16T07:41:25.370Z,22.70
2018-12-16T07:43:54.492Z,22.70
2018-12-16T07:46:23.489Z,22.70
2018-12-16T07:48:52.672Z,22.70
2018-12-16T07:51:21.711Z,22.70
2018-12-16T07:53:50.864Z,22.70
2018-12-16T07:56:19.858Z,22.70
2018-12-16T07:58:48.869Z,22.70
2018-12-16T08:01:17.977Z,22.70
2018-12-16T08:03:47.593Z,22.70
2018-12-16T08:06:16.731Z,22.70
2018-12-16T08:08:45.821Z,22.60
2018-12-16T08:11:14.811Z,22.70
2018-12-16T08:13:43.937Z,22.70
2018-12-16T08:16:12.951Z,22.70
2018-12-16T08:18:42.054Z,22.60
2018-12-16T08:21:11.188Z,22.70
2018-12-16T08:23:40.293Z,22.60
2018-12-16T08:26:09.328Z,22.60
2018-12-16T08:28:38.241Z,22.60
2018-12-16T08:31:07.318Z,22.60
2018-12-16T08:33:36.552Z,22.60
2018-12-16T08:36:05.681Z,22.60
2018-12-16T08:38:34.670Z,22.60
2018-12-16T08:41:03.663Z,22.60
2018-12-16T08:43:33.537Z,22.60
2018-12-16T08:46:02.625Z,22.60
2018-12-16T08:48:31.683Z,22.60
2018-12-16T08:51:00.597Z,22.60
2018-12-16T08:53:29.549Z,22.60
2018-12-16T08:55:58.559Z,22.60
2018-12-16T08:58:27.468Z,22.60
2018-12-16T09:00:56.571Z,22.60
2018-12-16T09:03:25.626Z,22.60
2018-12-16T09:05:54.691Z,22.60
2018-12-16T09:08:23.755Z,22.60
2018-12-16T09:10:52.749Z,22.60
2018-12-16T09:13:21.725Z,22.60
2018-12-16T09:15:50.836Z,22.60
2018-12-16T09:18:19.753Z,22.50
2018-12-16T09:20:48.872Z,22.60
2018-12-16T09:23:17.977Z,22.50
2018-12-16T09:25:46.990Z,22.60
2018-12-16T09:28:16.014Z,22.50
2018-12-16T09:30:45.245Z,22.50
2018-12-16T09:33:14.518Z,22.60
2018-12-16T09:35:44.440Z,22.60
2018-12-16T09:38:13.564Z,22.60
2018-12-16T09:40:42.521Z,22.60
2018-12-16T09:43:11.970Z,22.60
2018-12-16T09:45:40.906Z,22.50
2018-12-16T09:48:09.934Z,22.60
2018-12-16T09:50:39.805Z,22.60
2018-12-16T09:53:08.852Z,22.60
2018-12-16T09:55:37.983Z,22.60
2018-12-16T09:58:07.012Z,22.60
2018-12-16T10:00:35.986Z,22.60
2018-12-16T10:03:04.986Z,22.50
2018-12-16T10:05:34.645Z,22.60
2018-12-16T10:08:03.560Z,22.50
2018-12-16T10:10:32.659Z,22.60
2018-12-16T10:13:01.737Z,22.60
2018-12-16T10:15:30.933Z,22.60
2018-12-16T10:18:00.001Z,22.50
2018-12-16T10:20:29.125Z,22.60
2018-12-16T10:22:58.237Z,22.60
2018-12-16T10:25:27.332Z,22.60
2018-12-16T10:27:56.327Z,22.50
2018-12-16T10:30:25.268Z,22.50
2018-12-16T10:32:54.270Z,22.50
2018-12-16T10:35:23.407Z,22.50
2018-12-16T10:37:52.378Z,22.50
2018-12-16T10:40:21.816Z,22.50
2018-12-16T10:42:51.073Z,22.50
2018-12-16T10:45:20.005Z,22.50
2018-12-16T10:47:49.606Z,22.50
2018-12-16T10:50:18.582Z,22.60
2018-12-16T10:52:47.683Z,22.50
2018-12-16T10:55:16.479Z,22.50
2018-12-16T10:58:49.561Z,22.50
2018-12-16T11:01:23.886Z,22.50
2018-12-16T11:03:52.909Z,22.50
2018-12-16T11:06:22.041Z,22.50
2018-12-16T11:08:51.494Z,22.50
2018-12-16T11:11:20.656Z,22.50
2018-12-16T11:13:49.456Z,22.50
2018-12-16T11:16:18.809Z,22.50
2018-12-16T11:18:47.804Z,22.60
2018-12-16T11:21:16.808Z,22.60
2018-12-16T11:23:45.821Z,22.60
2018-12-16T11:26:14.923Z,22.60
2018-12-16T11:28:44.024Z,22.60
2018-12-16T11:31:13.040Z,22.70
2018-12-16T11:33:42.073Z,22.70
2018-12-16T11:36:11.047Z,22.70
2018-12-16T11:38:40.020Z,22.70
2018-12-16T11:41:09.084Z,22.70
2018-12-16T11:43:38.139Z,22.70
2018-12-16T11:46:07.099Z,22.70
2018-12-16T11:48:36.109Z,22.70
2018-12-16T11:51:05.234Z,22.80
2018-12-16T11:53:34.346Z,22.70
2018-12-16T11:56:03.362Z,22.80
2018-12-16T11:58:32.659Z,22.70
2018-12-16T12:01:01.676Z,22.70
2018-12-16T12:03:30.637Z,22.70
2018-12-16T12:05:59.509Z,22.70
2018-12-16T12:08:28.499Z,22.70
2018-12-16T12:10:58.553Z,22.70
2018-12-16T12:13:27.654Z,22.70
2018-12-16T12:15:56.715Z,22.70
2018-12-16T12:18:32.427Z,22.70
2018-12-16T12:21:01.376Z,22.70
2018-12-16T12:23:31.064Z,22.70
2018-12-16T12:26:00.093Z,22.70
2018-12-16T12:28:29.759Z,22.70
2018-12-16T12:30:59.356Z,22.70
2018-12-16T12:33:28.928Z,22.60
2018-12-16T12:35:58.637Z,22.60
2018-12-16T12:38:27.686Z,22.50
2018-12-16T12:40:56.701Z,22.50
2018-12-16T12:43:25.511Z,22.50
2018-12-16T12:45:54.368Z,22.50
2018-12-16T12:48:23.430Z,22.50
2018-12-16T12:50:52.536Z,22.60
2018-12-16T12:53:21.577Z,22.60
2018-12-16T12:55:50.670Z,22.60
2018-12-16T12:58:19.692Z,22.50
2018-12-16T13:00:48.675Z,22.50
2018-12-16T13:03:17.739Z,22.60
2018-12-16T13:05:46.806Z,22.60
2018-12-16T13:08:15.650Z,22.60
2018-12-16T13:10:44.627Z,22.60
2018-12-16T13:13:13.532Z,22.60
2018-12-16T13:15:42.650Z,22.60
2018-12-16T13:18:11.658Z,22.60
2018-12-16T13:20:40.772Z,22.70
2018-12-16T13:23:09.780Z,22.70
2018-12-16T13:25:49.954Z,22.70
2018-12-16T13:28:19.148Z,22.70
2018-12-16T13:30:48.117Z,22.80
2018-12-16T13:33:17.078Z,22.80
2018-12-16T13:35:46.116Z,22.80
2018-12-16T13:38:15.338Z,22.80
2018-12-16T13:40:44.317Z,22.80
2018-12-16T13:43:13.313Z,23.00
2018-12-16T13:45:42.235Z,23.00
2018-12-16T13:48:11.158Z,23.10
2018-12-16T13:50:40.162Z,23.20
2018-12-16T13:53:09.263Z,23.20
2018-12-16T13:55:41.001Z,23.30
2018-12-16T13:58:09.632Z,23.30
2018-12-16T14:00:38.745Z,23.30
2018-12-16T14:03:07.747Z,23.40
2018-12-16T14:05:36.870Z,23.40
2018-12-16T14:08:05.980Z,23.40
2018-12-16T14:10:35.014Z,23.40
2018-12-16T14:13:04.219Z,23.40
2018-12-16T14:15:33.154Z,23.40
2018-12-16T14:18:02.132Z,23.40
2018-12-16T14:20:31.152Z,23.40
2018-12-16T14:23:00.144Z,23.40
2018-12-16T14:25:29.144Z,23.40
2018-12-16T14:27:58.141Z,23.40
2018-12-16T14:30:27.170Z,23.40
2018-12-16T14:32:56.169Z,23.40
2018-12-16T14:35:25.372Z,23.40
2018-12-16T14:37:54.587Z,23.40
2018-12-16T14:40:23.517Z,23.40
2018-12-16T14:42:52.496Z,23.40
2018-12-16T14:45:21.886Z,23.40
2018-12-16T14:47:50.870Z,23.40
2018-12-16T14:50:19.885Z,23.40
2018-12-16T14:52:48.910Z,23.40
2018-12-16T14:55:17.904Z,23.40
2018-12-16T14:57:47.021Z,23.40
2018-12-16T15:00:16.294Z,23.40
2018-12-16T15:02:45.348Z,23.40
2018-12-16T15:05:14.464Z,23.40
2018-12-16T15:07:43.478Z,23.40
2018-12-16T15:10:12.579Z,23.40
2018-12-16T15:12:41.592Z,23.40
2018-12-16T15:15:10.604Z,23.40
2018-12-16T15:17:42.701Z,23.40
2018-12-16T15:20:10.900Z,23.30
2018-12-16T15:22:40.073Z,23.20
2018-12-16T15:25:09.092Z,23.30
2018-12-16T15:27:38.217Z,23.30
2018-12-16T15:30:09.239Z,23.30
2018-12-16T15:32:38.262Z,23.20
2018-12-16T15:35:07.501Z,23.10
2018-12-16T15:37:36.619Z,23.10
2018-12-16T15:40:06.478Z,23.20
2018-12-16T15:42:35.553Z,23.20
2018-12-16T15:45:05.080Z,23.20
2018-12-16T15:47:34.149Z,23.20
2018-12-16T15:50:03.299Z,23.10
2018-12-16T15:52:32.226Z,23.00
2018-12-16T15:55:01.315Z,22.80
2018-12-16T15:57:31.053Z,22.80
2018-12-16T16:00:00.173Z,22.80
2018-12-16T16:02:29.265Z,22.80
2018-12-16T16:04:58.901Z,22.90
2018-12-16T16:07:27.752Z,22.90
2018-12-16T16:09:56.708Z,22.90
2018-12-16T16:12:25.809Z,22.90
2018-12-16T16:14:55.169Z,22.90
2018-12-16T16:17:24.266Z,22.90
2018-12-16T16:19:53.367Z,22.90
2018-12-16T16:22:22.489Z,22.90
2018-12-16T16:24:51.442Z,23.00
2018-12-16T16:27:20.482Z,23.00
2018-12-16T16:29:49.512Z,22.90
2018-12-16T16:32:19.032Z,22.90
2018-12-16T16:34:48.045Z,22.90
2018-12-16T16:37:17.032Z,23.00
2018-12-16T16:39:46.225Z,23.00
2018-12-16T16:42:15.380Z,22.90
2018-12-16T16:44:44.400Z,22.90
2018-12-16T16:47:13.508Z,22.80
2018-12-16T16:49:42.627Z,22.80
2018-12-16T16:52:11.585Z,22.80
2018-12-16T16:54:40.636Z,22.90
2018-12-16T16:57:09.619Z,22.90
2018-12-16T16:59:38.431Z,22.90
2018-12-16T17:02:07.455Z,22.90
2018-12-16T17:04:36.376Z,22.90
2018-12-16T17:07:05.380Z,22.90
2018-12-16T17:09:34.528Z,23.00
2018-12-16T17:12:05.047Z,23.00
2018-12-16T17:14:34.053Z,23.00
2018-12-16T17:17:03.061Z,23.00
2018-12-16T17:19:32.214Z,23.00
2018-12-16T17:22:01.149Z,23.00
2018-12-16T17:24:30.091Z,22.90
2018-12-16T17:26:59.223Z,22.90
2018-12-16T17:29:28.390Z,22.90
2018-12-16T17:31:57.333Z,22.80
2018-12-16T17:34:26.287Z,22.90
2018-12-16T17:36:55.266Z,22.90
2018-12-16T17:39:24.379Z,22.90
2018-12-16T17:41:53.409Z,22.90
2018-12-16T17:44:22.493Z,22.90
2018-12-16T17:46:51.501Z,22.90
2018-12-16T17:49:20.407Z,22.90
2018-12-16T17:51:49.410Z,22.80
2018-12-16T17:54:18.541Z,22.80
2018-12-16T17:56:47.651Z,22.80
2018-12-16T17:59:18.076Z,22.80
2018-12-16T18:01:47.572Z,22.90
2018-12-16T18:04:17.284Z,22.90
2018-12-16T18:06:46.343Z,22.90
2018-12-16T18:09:15.456Z,22.90
2018-12-16T18:11:44.261Z,22.90
2018-12-16T18:14:13.299Z,22.90
2018-12-16T18:16:42.393Z,23.00
2018-12-16T18:19:11.568Z,23.00
2018-12-16T18:21:40.621Z,22.90
2018-12-16T18:24:09.732Z,23.10
2018-12-16T18:26:44.031Z,23.20
2018-12-16T18:29:09.744Z,23.30
2018-12-16T18:31:38.713Z,23.40
2018-12-16T18:34:07.902Z,23.50
2018-12-16T18:36:37.514Z,23.50
2018-12-16T18:39:09.486Z,23.60
2018-12-16T18:41:39.650Z,23.60
2018-12-16T18:44:08.999Z,23.60
2018-12-16T18:46:38.227Z,23.60
2018-12-16T18:49:08.020Z,23.70
2018-12-16T18:51:38.166Z,23.70
2018-12-16T18:54:08.080Z,23.70
2018-12-16T18:56:38.573Z,23.80
2018-12-16T18:59:08.475Z,23.80
2018-12-16T19:01:38.084Z,23.80
2018-12-16T19:04:07.828Z,23.80
2018-12-16T19:06:37.594Z,23.80
2018-12-16T19:09:08.569Z,23.80
2018-12-16T19:11:38.127Z,23.80
2018-12-16T19:14:07.257Z,23.80
2018-12-16T19:16:36.519Z,23.80
2018-12-16T19:19:05.721Z,23.90
2018-12-16T19:21:34.692Z,23.90
2018-12-16T19:24:03.606Z,23.90
2018-12-16T19:26:32.610Z,23.90
2018-12-16T19:29:01.783Z,23.90
2018-12-16T19:31:30.771Z,23.90
2018-12-16T19:33:59.733Z,23.70
2018-12-16T19:36:28.479Z,23.50
2018-12-16T19:38:57.273Z,23.40
2018-12-16T19:41:26.014Z,23.40
2018-12-16T19:43:55.039Z,23.30
2018-12-16T19:46:23.960Z,23.20
2018-12-16T19:48:52.971Z,23.30
2018-12-16T19:51:22.016Z,23.30
2018-12-16T19:53:51.113Z,23.50
2018-12-16T19:56:20.096Z,23.60
2018-12-16T19:58:49.209Z,23.60
2018-12-16T20:01:18.231Z,23.60
2018-12-16T20:03:52.456Z,23.70
2018-12-16T20:06:26.459Z,23.70
2018-12-16T20:08:55.604Z,23.70
2018-12-16T20:11:24.539Z,23.70
2018-12-16T20:13:53.421Z,23.80
2018-12-16T20:16:23.943Z,23.80
2018-12-16T20:18:53.082Z,23.80
2018-12-16T20:21:21.867Z,23.80
2018-12-16T20:23:50.595Z,23.90
2018-12-16T20:26:19.333Z,23.40
2018-12-16T20:28:48.130Z,22.60
2018-12-16T20:31:16.904Z,21.80
2018-12-16T20:33:45.799Z,21.20
2018-12-16T20:36:14.806Z,20.80
2018-12-16T20:38:43.716Z,20.50
2018-12-16T20:41:12.735Z,20.20
2018-12-16T20:43:41.836Z,20.10
2018-12-16T20:46:10.975Z,19.80
2018-12-16T20:48:40.115Z,19.60
2018-12-16T20:51:09.208Z,19.50
2018-12-16T20:53:38.225Z,19.40
2018-12-16T20:56:07.196Z,20.10
2018-12-16T20:58:36.125Z,20.70
2018-12-16T21:01:05.133Z,21.00
2018-12-16T21:03:34.761Z,21.30
2018-12-16T21:06:03.771Z,21.50
2018-12-16T21:08:32.860Z,21.70
2018-12-16T21:11:05.931Z,21.80
2018-12-16T21:13:40.271Z,21.90
2018-12-16T21:16:14.507Z,22.10
2018-12-16T21:18:43.844Z,22.10
2018-12-16T21:21:12.856Z,22.20
2018-12-16T21:23:41.885Z,22.30
2018-12-16T21:26:10.897Z,22.40
2018-12-16T21:28:39.917Z,22.40
2018-12-16T21:31:08.946Z,22.50
2018-12-16T21:33:37.872Z,22.50
2018-12-16T21:36:06.813Z,22.50
2018-12-16T21:38:35.646Z,22.60
2018-12-16T21:41:04.749Z,22.60
2018-12-16T21:43:34.866Z,22.60
2018-12-16T21:46:04.099Z,22.60
2018-12-16T21:48:33.221Z,22.70
2018-12-16T21:51:02.220Z,22.60
2018-12-16T21:53:31.446Z,22.70
2018-12-16T21:56:00.561Z,22.70
2018-12-16T21:58:29.600Z,22.70
2018-12-16T22:00:58.467Z,22.70
2018-12-16T22:03:29.102Z,22.70
2018-12-16T22:05:58.160Z,22.70
2018-12-16T22:08:27.137Z,22.70
2018-12-16T22:10:56.257Z,22.80
2018-12-16T22:13:25.212Z,22.80
2018-12-16T22:15:54.284Z,22.70
2018-12-16T22:18:23.900Z,22.80
2018-12-16T22:20:52.981Z,22.80
2018-12-16T22:23:21.988Z,22.70
2018-12-16T22:25:51.681Z,22.70
2018-12-16T22:28:20.753Z,22.70
2018-12-16T22:30:49.884Z,22.70
2018-12-16T22:33:18.976Z,22.70
2018-12-16T22:35:48.002Z,22.70
2018-12-16T22:38:17.098Z,22.70
2018-12-16T22:40:46.117Z,22.80
2018-12-16T22:43:15.128Z,22.80
2018-12-16T22:45:44.081Z,22.80
2018-12-16T22:48:13.006Z,22.70
2018-12-16T22:50:41.828Z,22.70
2018-12-16T22:53:10.867Z,22.70
2018-12-16T22:55:39.868Z,22.70
2018-12-16T22:58:08.864Z,22.70
2018-12-16T23:00:42.007Z,22.70
2018-12-16T23:03:12.430Z,22.70
2018-12-16T23:05:41.543Z,22.70
2018-12-16T23:08:10.441Z,22.70
2018-12-16T23:10:39.527Z,22.70
2018-12-16T23:13:08.470Z,22.60
2018-12-16T23:15:37.591Z,22.70
2018-12-16T23:18:06.546Z,22.60
2018-12-16T23:20:35.507Z,22.70
2018-12-16T23:23:04.925Z,22.60
2018-12-16T23:25:34.031Z,22.60
2018-12-16T23:28:03.175Z,22.60
2018-12-16T23:30:32.373Z,22.60
2018-12-16T23:33:01.316Z,22.60
2018-12-16T23:35:30.285Z,22.60
2018-12-16T23:37:59.393Z,22.60
2018-12-16T23:40:28.513Z,22.60
2018-12-16T23:42:57.534Z,22.60
2018-12-16T23:45:26.552Z,22.60
2018-12-16T23:47:55.597Z,22.60
2018-12-16T23:50:24.600Z,22.60
2018-12-16T23:52:53.565Z,22.60
2018-12-16T23:55:23.115Z,22.60
2018-12-16T23:57:51.968Z,22.60
